Nieuw Amsterdam — PBWQ — position and weather

sailwx.info

Track history (hours):
 
Tides and Currents Weather Stations Pressure Air Temp Water Temp Dewpoint Dewpoint Depression Visibility Wind Speed Wind Dir Waves Ship Positions

Nieuw Amsterdam

Last reported at 2020-Apr-02 21:07 UTC. Time now 2020-Apr-06 18:45 UTC.
Position N 26°07' W 079°17'.

Length 285 m; draft 8.6 m.

Type: Passenger vessel. MMSI: 246648000.

Date/timePositionNaut miles runAvg speedWind from/ knotsBaromVisibWave heightAir tempDewpointWater temp
2020-Apr-02 21:07N 26°07' W 079°17'213.3
2020-Apr-02 20:59N 26°06' W 079°19'1610.9
2020-Apr-02 19:30N 26°01' W 079°36'4 7.9
2020-Apr-02 19:00N 26°04' W 079°35'4 8.9
2020-Apr-02 18:30N 26°05' W 079°30'8 3.1
2020-Apr-02 16:00N 26°00' W 079°36'4 7.4 040 / 151015.910.8 24.0
2020-Apr-02 15:30N 26°04' W 079°36'611.8
2020-Apr-02 15:00N 26°06' W 079°30'4 2.7 040 / 151016.010.8 24.0
2020-Apr-02 13:30N 26°04' W 079°26'1510.2
2020-Apr-02 12:00N 25°51' W 079°37'3483.3
2020-Apr-02 12:00N 25°48' W 079°36'1211.7 060 / 161014.110.8 23.4 31.0
2020-Apr-02 11:00N 25°60' W 079°36'5 9.0
2020-Apr-02 10:30N 26°04' W 079°35'9 9.3
2020-Apr-02 09:30N 26°08' W 079°26'1811.9
2020-Apr-02 08:00N 25°51' W 079°31'510.9
2020-Apr-02 07:30N 25°46' W 079°35'15 7.5
2020-Apr-02 05:30N 26°01' W 079°36'18 2.0
2020-Apr-01 20:34N 26°06' W 079°17'57 1.3
2020-Mar-31 00:35N 25°47' W 078°16'62 1.4
2020-Mar-29 03:30N 26°14' W 079°19'1210.4
2020-Mar-29 02:24N 26°24' W 079°24'16 5.4
2020-Mar-28 23:28N 26°28' W 079°42'2811.3
2020-Mar-28 21:00N 26°06' W 080°02'5 3.2
2020-Mar-28 19:29N 26°05' W 080°07'0 0.0
2020-Mar-28 15:29N 26°05' W 080°07'23378.2
2020-Mar-28 12:30N 24°49' W 076°02'233439.0
2020-Mar-28 11:58N 26°05' W 080°07'0 0.0
2020-Mar-28 11:28N 26°05' W 080°07'23 7.9
2020-Mar-28 08:31N 26°17' W 079°44'  
2020-Mar-25 01:05N 25°47' W 078°16'0 0.5
2020-Mar-25 00:59N 25°47' W 078°16'3 7.3
2020-Mar-25 00:31N 25°50' W 078°16'5411.9
2020-Mar-24 20:00N 26°12' W 079°10'815.7
2020-Mar-24 19:30N 26°11' W 079°19'815.3
2020-Mar-24 19:00N 26°11' W 079°28'6 4.1
2020-Mar-24 17:30N 26°17' W 079°29'612.4
2020-Mar-24 17:00N 26°23' W 079°27'  
Track history (hours):
 
Tides and Currents Weather Stations Pressure Air Temp Water Temp Dewpoint Dewpoint Depression Visibility Wind Speed Wind Dir Waves Ship Positions

Nieuw Amsterdam

Last reported at 2020-Apr-02 21:07 UTC. Time now 2020-Apr-06 18:45 UTC.
Position N 26°07' W 079°17'.

Length 285 m; draft 8.6 m.

Type: Passenger vessel. MMSI: 246648000.

Date/timePositionNaut miles runAvg speedWind from/ knotsBaromVisibWave heightAir tempDewpointWater temp
2020-Apr-02 21:07N 26°07' W 079°17'213.3
2020-Apr-02 20:59N 26°06' W 079°19'1610.9
2020-Apr-02 19:30N 26°01' W 079°36'4 7.9
2020-Apr-02 19:00N 26°04' W 079°35'4 8.9
2020-Apr-02 18:30N 26°05' W 079°30'8 3.1
2020-Apr-02 16:00N 26°00' W 079°36'4 7.4 040 / 151015.910.8 24.0
2020-Apr-02 15:30N 26°04' W 079°36'611.8
2020-Apr-02 15:00N 26°06' W 079°30'4 2.7 040 / 151016.010.8 24.0
2020-Apr-02 13:30N 26°04' W 079°26'1510.2
2020-Apr-02 12:00N 25°51' W 079°37'3483.3
2020-Apr-02 12:00N 25°48' W 079°36'1211.7 060 / 161014.110.8 23.4 31.0
2020-Apr-02 11:00N 25°60' W 079°36'5 9.0
2020-Apr-02 10:30N 26°04' W 079°35'9 9.3
2020-Apr-02 09:30N 26°08' W 079°26'1811.9
2020-Apr-02 08:00N 25°51' W 079°31'510.9
2020-Apr-02 07:30N 25°46' W 079°35'15 7.5
2020-Apr-02 05:30N 26°01' W 079°36'18 2.0
2020-Apr-01 20:34N 26°06' W 079°17'57 1.3
2020-Mar-31 00:35N 25°47' W 078°16'62 1.4
2020-Mar-29 03:30N 26°14' W 079°19'1210.4
2020-Mar-29 02:24N 26°24' W 079°24'16 5.4
2020-Mar-28 23:28N 26°28' W 079°42'2811.3
2020-Mar-28 21:00N 26°06' W 080°02'5 3.2
2020-Mar-28 19:29N 26°05' W 080°07'0 0.0
2020-Mar-28 15:29N 26°05' W 080°07'23378.2
2020-Mar-28 12:30N 24°49' W 076°02'233439.0
2020-Mar-28 11:58N 26°05' W 080°07'0 0.0
2020-Mar-28 11:28N 26°05' W 080°07'23 7.9
2020-Mar-28 08:31N 26°17' W 079°44'  
2020-Mar-25 01:05N 25°47' W 078°16'0 0.5
2020-Mar-25 00:59N 25°47' W 078°16'3 7.3
2020-Mar-25 00:31N 25°50' W 078°16'5411.9
2020-Mar-24 20:00N 26°12' W 079°10'815.7
2020-Mar-24 19:30N 26°11' W 079°19'815.3
2020-Mar-24 19:00N 26°11' W 079°28'6 4.1
2020-Mar-24 17:30N 26°17' W 079°29'612.4
2020-Mar-24 17:00N 26°23' W 079°27'  

Dump ship's entire track history